sensor_id;sensor_type;location;lat;lon;timestamp;P1;durP1;ratioP1;P2;durP2;ratioP2
12986;SDS011;58897;51.960;5.582;2023-08-06T00:00:38;11.07;;;4.80;;
12986;SDS011;58897;51.960;5.582;2023-08-06T00:03:05;12.37;;;4.40;;
12986;SDS011;58897;51.960;5.582;2023-08-06T00:05:33;4.60;;;3.10;;
12986;SDS011;58897;51.960;5.582;2023-08-06T00:07:59;8.13;;;3.47;;
12986;SDS011;58897;51.960;5.582;2023-08-06T00:10:27;6.10;;;3.43;;
12986;SDS011;58897;51.960;5.582;2023-08-06T00:12:54;9.27;;;3.97;;
12986;SDS011;58897;51.960;5.582;2023-08-06T00:15:21;8.47;;;3.67;;
12986;SDS011;58897;51.960;5.582;2023-08-06T00:17:48;13.00;;;4.60;;
12986;SDS011;58897;51.960;5.582;2023-08-06T00:20:15;17.37;;;4.60;;
12986;SDS011;58897;51.960;5.582;2023-08-06T00:22:42;8.37;;;3.93;;
12986;SDS011;58897;51.960;5.582;2023-08-06T00:25:09;25.17;;;5.87;;
12986;SDS011;58897;51.960;5.582;2023-08-06T00:27:36;8.13;;;3.33;;
12986;SDS011;58897;51.960;5.582;2023-08-06T00:30:06;12.87;;;3.70;;
12986;SDS011;58897;51.960;5.582;2023-08-06T00:32:34;12.57;;;4.13;;
12986;SDS011;58897;51.960;5.582;2023-08-06T00:35:00;5.00;;;3.00;;
12986;SDS011;58897;51.960;5.582;2023-08-06T00:37:28;9.20;;;4.53;;
12986;SDS011;58897;51.960;5.582;2023-08-06T00:39:54;7.70;;;3.93;;
12986;SDS011;58897;51.960;5.582;2023-08-06T00:42:21;13.87;;;5.27;;
12986;SDS011;58897;51.960;5.582;2023-08-06T00:44:49;7.37;;;3.93;;
12986;SDS011;58897;51.960;5.582;2023-08-06T00:47:15;24.77;;;6.40;;
12986;SDS011;58897;51.960;5.582;2023-08-06T00:49:45;8.87;;;4.27;;
12986;SDS011;58897;51.960;5.582;2023-08-06T00:52:13;37.00;;;7.50;;
12986;SDS011;58897;51.960;5.582;2023-08-06T00:54:40;7.37;;;4.70;;
12986;SDS011;58897;51.960;5.582;2023-08-06T00:57:08;22.07;;;5.63;;
12986;SDS011;58897;51.960;5.582;2023-08-06T00:59:36;8.87;;;4.93;;
12986;SDS011;58897;51.960;5.582;2023-08-06T01:02:04;16.27;;;5.77;;
12986;SDS011;58897;51.960;5.582;2023-08-06T01:04:31;9.70;;;4.23;;
12986;SDS011;58897;51.960;5.582;2023-08-06T01:09:40;9.47;;;5.00;;
12986;SDS011;58897;51.960;5.582;2023-08-06T01:15:12;9.97;;;4.07;;
12986;SDS011;58897;51.960;5.582;2023-08-06T01:17:54;13.87;;;5.67;;
12986;SDS011;58897;51.960;5.582;2023-08-06T01:20:40;10.37;;;5.43;;
12986;SDS011;58897;51.960;5.582;2023-08-06T01:23:19;32.37;;;7.10;;
12986;SDS011;58897;51.960;5.582;2023-08-06T01:31:30;52.93;;;7.87;;
12986;SDS011;58897;51.960;5.582;2023-08-06T01:34:18;31.23;;;6.37;;
12986;SDS011;58897;51.960;5.582;2023-08-06T01:36:50;13.80;;;4.53;;
12986;SDS011;58897;51.960;5.582;2023-08-06T01:39:17;32.83;;;6.23;;
12986;SDS011;58897;51.960;5.582;2023-08-06T01:41:50;8.20;;;4.97;;
12986;SDS011;58897;51.960;5.582;2023-08-06T01:44:17;31.93;;;6.63;;
12986;SDS011;58897;51.960;5.582;2023-08-06T01:46:48;13.20;;;6.23;;
12986;SDS011;58897;51.960;5.582;2023-08-06T01:49:18;27.87;;;6.87;;
12986;SDS011;58897;51.960;5.582;2023-08-06T01:51:45;10.63;;;4.90;;
12986;SDS011;58897;51.960;5.582;2023-08-06T01:54:12;27.77;;;7.40;;
12986;SDS011;58897;51.960;5.582;2023-08-06T01:56:44;13.43;;;5.57;;
12986;SDS011;58897;51.960;5.582;2023-08-06T01:59:11;36.47;;;7.93;;
12986;SDS011;58897;51.960;5.582;2023-08-06T02:01:38;10.43;;;5.70;;
12986;SDS011;58897;51.960;5.582;2023-08-06T02:04:08;36.63;;;8.97;;
12986;SDS011;58897;51.960;5.582;2023-08-06T02:06:35;11.27;;;6.13;;
12986;SDS011;58897;51.960;5.582;2023-08-06T02:09:02;10.37;;;6.13;;
12986;SDS011;58897;51.960;5.582;2023-08-06T02:11:29;12.23;;;6.70;;
12986;SDS011;58897;51.960;5.582;2023-08-06T02:13:56;9.00;;;5.30;;
12986;SDS011;58897;51.960;5.582;2023-08-06T02:16:23;14.03;;;6.47;;
12986;SDS011;58897;51.960;5.582;2023-08-06T02:18:50;12.63;;;5.93;;
12986;SDS011;58897;51.960;5.582;2023-08-06T02:21:20;24.13;;;6.73;;
12986;SDS011;58897;51.960;5.582;2023-08-06T02:23:49;9.47;;;5.50;;
12986;SDS011;58897;51.960;5.582;2023-08-06T02:26:15;20.70;;;7.00;;
12986;SDS011;58897;51.960;5.582;2023-08-06T02:28:45;10.87;;;6.27;;
12986;SDS011;58897;51.960;5.582;2023-08-06T02:31:12;42.70;;;9.30;;
12986;SDS011;58897;51.960;5.582;2023-08-06T02:33:39;12.17;;;6.53;;
12986;SDS011;58897;51.960;5.582;2023-08-06T02:36:06;9.27;;;5.90;;
12986;SDS011;58897;51.960;5.582;2023-08-06T02:38:33;13.23;;;6.73;;
12986;SDS011;58897;51.960;5.582;2023-08-06T02:41:04;17.67;;;6.90;;
12986;SDS011;58897;51.960;5.582;2023-08-06T02:43:31;11.30;;;5.73;;
12986;SDS011;58897;51.960;5.582;2023-08-06T02:45:58;13.27;;;6.13;;
12986;SDS011;58897;51.960;5.582;2023-08-06T02:48:26;16.07;;;6.47;;
12986;SDS011;58897;51.960;5.582;2023-08-06T02:50:56;13.10;;;6.73;;
12986;SDS011;58897;51.960;5.582;2023-08-06T02:53:25;12.50;;;6.47;;
12986;SDS011;58897;51.960;5.582;2023-08-06T02:55:52;10.47;;;6.10;;
12986;SDS011;58897;51.960;5.582;2023-08-06T02:58:20;34.70;;;8.70;;
12986;SDS011;58897;51.960;5.582;2023-08-06T03:01:04;9.70;;;5.73;;
12986;SDS011;58897;51.960;5.582;2023-08-06T03:03:33;14.03;;;7.00;;
12986;SDS011;58897;51.960;5.582;2023-08-06T03:06:00;11.30;;;6.87;;
12986;SDS011;58897;51.960;5.582;2023-08-06T03:08:35;13.57;;;7.10;;
12986;SDS011;58897;51.960;5.582;2023-08-06T03:11:02;13.00;;;7.07;;
12986;SDS011;58897;51.960;5.582;2023-08-06T03:13:32;9.63;;;6.50;;
12986;SDS011;58897;51.960;5.582;2023-08-06T03:15:59;8.33;;;6.23;;
12986;SDS011;58897;51.960;5.582;2023-08-06T03:18:29;14.10;;;7.00;;
12986;SDS011;58897;51.960;5.582;2023-08-06T03:20:57;14.27;;;6.87;;
12986;SDS011;58897;51.960;5.582;2023-08-06T03:23:24;12.23;;;7.00;;
12986;SDS011;58897;51.960;5.582;2023-08-06T03:25:51;11.20;;;6.23;;
12986;SDS011;58897;51.960;5.582;2023-08-06T03:28:18;38.30;;;8.33;;
12986;SDS011;58897;51.960;5.582;2023-08-06T03:30:45;15.23;;;7.00;;
12986;SDS011;58897;51.960;5.582;2023-08-06T03:33:15;48.00;;;9.30;;
12986;SDS011;58897;51.960;5.582;2023-08-06T03:35:45;10.97;;;6.63;;
12986;SDS011;58897;51.960;5.582;2023-08-06T03:38:12;14.30;;;6.27;;
12986;SDS011;58897;51.960;5.582;2023-08-06T03:40:39;15.83;;;7.00;;
12986;SDS011;58897;51.960;5.582;2023-08-06T03:43:06;21.93;;;7.30;;
12986;SDS011;58897;51.960;5.582;2023-08-06T03:45:45;8.33;;;5.80;;
12986;SDS011;58897;51.960;5.582;2023-08-06T03:48:15;13.80;;;6.40;;
12986;SDS011;58897;51.960;5.582;2023-08-06T03:50:44;10.37;;;5.83;;
12986;SDS011;58897;51.960;5.582;2023-08-06T03:53:15;67.73;;;10.57;;
12986;SDS011;58897;51.960;5.582;2023-08-06T03:55:46;11.63;;;5.97;;
12986;SDS011;58897;51.960;5.582;2023-08-06T03:58:15;29.67;;;7.30;;
12986;SDS011;58897;51.960;5.582;2023-08-06T04:00:43;12.77;;;6.10;;
12986;SDS011;58897;51.960;5.582;2023-08-06T04:03:10;45.93;;;8.53;;
12986;SDS011;58897;51.960;5.582;2023-08-06T04:05:42;11.00;;;5.67;;
12986;SDS011;58897;51.960;5.582;2023-08-06T04:08:18;23.83;;;6.57;;
12986;SDS011;58897;51.960;5.582;2023-08-06T04:10:45;12.57;;;6.40;;
12986;SDS011;58897;51.960;5.582;2023-08-06T04:13:19;40.10;;;7.87;;
12986;SDS011;58897;51.960;5.582;2023-08-06T04:15:46;11.30;;;5.63;;
12986;SDS011;58897;51.960;5.582;2023-08-06T04:18:14;25.83;;;6.43;;
12986;SDS011;58897;51.960;5.582;2023-08-06T04:20:46;10.93;;;6.87;;
12986;SDS011;58897;51.960;5.582;2023-08-06T04:23:16;37.00;;;8.40;;
12986;SDS011;58897;51.960;5.582;2023-08-06T04:25:43;13.13;;;6.03;;
12986;SDS011;58897;51.960;5.582;2023-08-06T04:28:10;16.07;;;6.17;;
12986;SDS011;58897;51.960;5.582;2023-08-06T04:30:37;14.80;;;6.50;;
12986;SDS011;58897;51.960;5.582;2023-08-06T04:33:04;24.00;;;6.27;;
12986;SDS011;58897;51.960;5.582;2023-08-06T04:35:31;9.47;;;5.60;;
12986;SDS011;58897;51.960;5.582;2023-08-06T04:38:03;9.33;;;5.50;;
12986;SDS011;58897;51.960;5.582;2023-08-06T04:40:33;8.13;;;4.97;;
12986;SDS011;58897;51.960;5.582;2023-08-06T04:43:01;11.13;;;6.27;;
12986;SDS011;58897;51.960;5.582;2023-08-06T04:45:28;14.73;;;6.50;;
12986;SDS011;58897;51.960;5.582;2023-08-06T04:47:55;10.60;;;5.97;;
12986;SDS011;58897;51.960;5.582;2023-08-06T04:50:22;10.60;;;6.13;;
12986;SDS011;58897;51.960;5.582;2023-08-06T04:52:49;12.10;;;5.90;;
12986;SDS011;58897;51.960;5.582;2023-08-06T04:55:16;17.67;;;6.43;;
12986;SDS011;58897;51.960;5.582;2023-08-06T04:57:43;12.67;;;7.03;;
12986;SDS011;58897;51.960;5.582;2023-08-06T05:00:09;26.93;;;8.43;;
12986;SDS011;58897;51.960;5.582;2023-08-06T05:02:36;16.07;;;7.37;;
12986;SDS011;58897;51.960;5.582;2023-08-06T05:05:05;31.77;;;7.87;;
12986;SDS011;58897;51.960;5.582;2023-08-06T05:07:32;10.27;;;6.40;;
12986;SDS011;58897;51.960;5.582;2023-08-06T05:09:59;11.93;;;6.50;;
12986;SDS011;58897;51.960;5.582;2023-08-06T05:12:26;9.30;;;6.30;;
12986;SDS011;58897;51.960;5.582;2023-08-06T05:14:53;10.13;;;7.27;;
12986;SDS011;58897;51.960;5.582;2023-08-06T05:17:22;15.00;;;7.47;;
12986;SDS011;58897;51.960;5.582;2023-08-06T05:19:50;13.43;;;7.43;;
12986;SDS011;58897;51.960;5.582;2023-08-06T05:22:20;35.90;;;9.10;;
12986;SDS011;58897;51.960;5.582;2023-08-06T05:24:49;11.27;;;6.83;;
12986;SDS011;58897;51.960;5.582;2023-08-06T05:27:16;27.20;;;8.40;;
12986;SDS011;58897;51.960;5.582;2023-08-06T05:29:45;11.87;;;6.93;;
12986;SDS011;58897;51.960;5.582;2023-08-06T05:32:21;38.70;;;8.73;;
12986;SDS011;58897;51.960;5.582;2023-08-06T05:34:49;10.40;;;7.00;;
12986;SDS011;58897;51.960;5.582;2023-08-06T05:37:16;42.60;;;8.73;;
12986;SDS011;58897;51.960;5.582;2023-08-06T05:39:43;9.13;;;6.40;;
12986;SDS011;58897;51.960;5.582;2023-08-06T05:42:12;25.13;;;8.13;;
12986;SDS011;58897;51.960;5.582;2023-08-06T05:44:39;10.70;;;6.50;;
12986;SDS011;58897;51.960;5.582;2023-08-06T05:47:06;22.77;;;7.97;;
12986;SDS011;58897;51.960;5.582;2023-08-06T05:49:33;14.60;;;7.33;;
12986;SDS011;58897;51.960;5.582;2023-08-06T05:51:59;12.40;;;6.80;;
12986;SDS011;58897;51.960;5.582;2023-08-06T05:54:26;13.60;;;7.17;;
12986;SDS011;58897;51.960;5.582;2023-08-06T05:56:53;24.43;;;9.63;;
12986;SDS011;58897;51.960;5.582;2023-08-06T05:59:19;15.33;;;7.47;;
12986;SDS011;58897;51.960;5.582;2023-08-06T06:01:46;16.93;;;8.87;;
12986;SDS011;58897;51.960;5.582;2023-08-06T06:04:12;17.73;;;8.57;;
12986;SDS011;58897;51.960;5.582;2023-08-06T06:06:39;15.83;;;8.73;;
12986;SDS011;58897;51.960;5.582;2023-08-06T06:09:07;15.10;;;8.03;;
12986;SDS011;58897;51.960;5.582;2023-08-06T06:11:34;18.07;;;8.83;;
12986;SDS011;58897;51.960;5.582;2023-08-06T06:14:01;17.90;;;8.87;;
12986;SDS011;58897;51.960;5.582;2023-08-06T06:16:27;13.93;;;8.10;;
12986;SDS011;58897;51.960;5.582;2023-08-06T06:18:54;16.37;;;10.00;;
12986;SDS011;58897;51.960;5.582;2023-08-06T06:21:21;20.50;;;9.57;;
12986;SDS011;58897;51.960;5.582;2023-08-06T06:23:47;14.70;;;9.00;;
12986;SDS011;58897;51.960;5.582;2023-08-06T06:26:14;23.30;;;10.67;;
12986;SDS011;58897;51.960;5.582;2023-08-06T06:28:40;24.63;;;12.37;;
12986;SDS011;58897;51.960;5.582;2023-08-06T06:31:07;17.63;;;10.17;;
12986;SDS011;58897;51.960;5.582;2023-08-06T06:33:34;18.10;;;10.37;;
12986;SDS011;58897;51.960;5.582;2023-08-06T06:36:00;21.00;;;11.07;;
12986;SDS011;58897;51.960;5.582;2023-08-06T06:38:29;13.87;;;10.43;;
12986;SDS011;58897;51.960;5.582;2023-08-06T06:40:56;19.87;;;11.70;;
12986;SDS011;58897;51.960;5.582;2023-08-06T06:43:23;23.43;;;11.77;;
12986;SDS011;58897;51.960;5.582;2023-08-06T06:45:53;29.17;;;13.50;;
12986;SDS011;58897;51.960;5.582;2023-08-06T06:48:24;20.30;;;11.33;;
12986;SDS011;58897;51.960;5.582;2023-08-06T06:50:54;20.50;;;11.80;;
12986;SDS011;58897;51.960;5.582;2023-08-06T06:53:21;27.73;;;12.70;;
12986;SDS011;58897;51.960;5.582;2023-08-06T06:56:14;19.77;;;11.20;;
12986;SDS011;58897;51.960;5.582;2023-08-06T06:58:44;22.60;;;11.60;;
12986;SDS011;58897;51.960;5.582;2023-08-06T07:01:10;27.67;;;12.00;;
12986;SDS011;58897;51.960;5.582;2023-08-06T07:03:38;16.27;;;10.60;;
12986;SDS011;58897;51.960;5.582;2023-08-06T07:06:05;20.20;;;11.57;;
12986;SDS011;58897;51.960;5.582;2023-08-06T07:08:33;13.27;;;9.77;;
12986;SDS011;58897;51.960;5.582;2023-08-06T07:11:00;16.90;;;11.30;;
12986;SDS011;58897;51.960;5.582;2023-08-06T07:13:29;17.13;;;10.90;;
12986;SDS011;58897;51.960;5.582;2023-08-06T07:15:56;16.73;;;11.53;;
12986;SDS011;58897;51.960;5.582;2023-08-06T07:18:26;20.27;;;12.03;;
12986;SDS011;58897;51.960;5.582;2023-08-06T07:20:53;19.50;;;11.67;;
12986;SDS011;58897;51.960;5.582;2023-08-06T07:23:21;17.33;;;11.20;;
12986;SDS011;58897;51.960;5.582;2023-08-06T07:25:49;17.73;;;11.33;;
12986;SDS011;58897;51.960;5.582;2023-08-06T07:28:16;23.57;;;12.00;;
12986;SDS011;58897;51.960;5.582;2023-08-06T07:30:43;16.63;;;11.37;;
12986;SDS011;58897;51.960;5.582;2023-08-06T07:33:11;18.70;;;11.80;;
12986;SDS011;58897;51.960;5.582;2023-08-06T07:35:38;18.73;;;11.03;;
12986;SDS011;58897;51.960;5.582;2023-08-06T07:38:05;23.90;;;11.67;;
12986;SDS011;58897;51.960;5.582;2023-08-06T07:40:32;19.17;;;11.07;;
12986;SDS011;58897;51.960;5.582;2023-08-06T07:42:59;15.47;;;10.27;;
12986;SDS011;58897;51.960;5.582;2023-08-06T07:45:25;12.90;;;9.17;;
12986;SDS011;58897;51.960;5.582;2023-08-06T07:47:53;17.90;;;9.97;;
12986;SDS011;58897;51.960;5.582;2023-08-06T07:50:20;17.73;;;9.13;;
12986;SDS011;58897;51.960;5.582;2023-08-06T07:53:10;73.77;;;13.67;;
12986;SDS011;58897;51.960;5.582;2023-08-06T07:55:40;19.03;;;10.10;;
12986;SDS011;58897;51.960;5.582;2023-08-06T07:58:10;14.83;;;8.97;;
12986;SDS011;58897;51.960;5.582;2023-08-06T08:00:36;20.77;;;9.87;;
12986;SDS011;58897;51.960;5.582;2023-08-06T08:03:04;23.57;;;14.63;;
12986;SDS011;58897;51.960;5.582;2023-08-06T08:05:31;14.80;;;10.10;;
12986;SDS011;58897;51.960;5.582;2023-08-06T08:07:57;18.23;;;11.40;;
12986;SDS011;58897;51.960;5.582;2023-08-06T08:10:24;25.77;;;10.93;;
12986;SDS011;58897;51.960;5.582;2023-08-06T08:12:55;15.63;;;9.43;;
12986;SDS011;58897;51.960;5.582;2023-08-06T08:15:21;16.90;;;9.40;;
12986;SDS011;58897;51.960;5.582;2023-08-06T08:17:48;11.13;;;7.80;;
12986;SDS011;58897;51.960;5.582;2023-08-06T08:20:16;42.50;;;10.50;;
12986;SDS011;58897;51.960;5.582;2023-08-06T08:22:43;16.53;;;7.30;;
12986;SDS011;58897;51.960;5.582;2023-08-06T08:25:09;23.27;;;5.13;;
12986;SDS011;58897;51.960;5.582;2023-08-06T08:27:36;6.43;;;2.00;;
12986;SDS011;58897;51.960;5.582;2023-08-06T08:30:04;20.73;;;3.07;;
12986;SDS011;58897;51.960;5.582;2023-08-06T08:32:31;13.23;;;3.00;;
12986;SDS011;58897;51.960;5.582;2023-08-06T08:34:58;10.13;;;2.50;;
12986;SDS011;58897;51.960;5.582;2023-08-06T08:37:25;3.47;;;1.23;;
12986;SDS011;58897;51.960;5.582;2023-08-06T08:39:52;8.70;;;2.20;;
12986;SDS011;58897;51.960;5.582;2023-08-06T08:42:19;9.37;;;2.27;;
12986;SDS011;58897;51.960;5.582;2023-08-06T08:44:45;7.17;;;1.90;;
12986;SDS011;58897;51.960;5.582;2023-08-06T08:47:12;19.97;;;2.90;;
12986;SDS011;58897;51.960;5.582;2023-08-06T08:49:39;6.70;;;1.67;;
12986;SDS011;58897;51.960;5.582;2023-08-06T08:52:07;16.73;;;2.63;;
12986;SDS011;58897;51.960;5.582;2023-08-06T08:54:37;5.37;;;1.37;;
12986;SDS011;58897;51.960;5.582;2023-08-06T08:57:06;21.47;;;3.07;;
12986;SDS011;58897;51.960;5.582;2023-08-06T08:59:33;7.40;;;1.87;;
12986;SDS011;58897;51.960;5.582;2023-08-06T09:02:00;12.23;;;2.63;;
12986;SDS011;58897;51.960;5.582;2023-08-06T09:04:30;14.03;;;2.50;;
12986;SDS011;58897;51.960;5.582;2023-08-06T09:07:00;13.77;;;3.33;;
12986;SDS011;58897;51.960;5.582;2023-08-06T09:09:33;8.13;;;1.77;;
12986;SDS011;58897;51.960;5.582;2023-08-06T09:12:10;14.83;;;3.20;;
12986;SDS011;58897;51.960;5.582;2023-08-06T09:14:38;9.50;;;2.40;;
12986;SDS011;58897;51.960;5.582;2023-08-06T09:17:05;7.83;;;2.23;;
12986;SDS011;58897;51.960;5.582;2023-08-06T09:19:32;8.80;;;2.73;;
12986;SDS011;58897;51.960;5.582;2023-08-06T09:21:59;6.20;;;2.03;;
12986;SDS011;58897;51.960;5.582;2023-08-06T09:24:26;5.37;;;1.83;;
12986;SDS011;58897;51.960;5.582;2023-08-06T09:26:54;15.87;;;2.90;;
12986;SDS011;58897;51.960;5.582;2023-08-06T09:29:21;6.53;;;2.27;;
12986;SDS011;58897;51.960;5.582;2023-08-06T09:31:50;8.33;;;2.77;;
12986;SDS011;58897;51.960;5.582;2023-08-06T09:34:23;9.50;;;2.60;;
12986;SDS011;58897;51.960;5.582;2023-08-06T09:36:51;9.93;;;2.93;;
12986;SDS011;58897;51.960;5.582;2023-08-06T09:39:26;13.63;;;3.43;;
12986;SDS011;58897;51.960;5.582;2023-08-06T09:42:03;19.17;;;3.20;;
12986;SDS011;58897;51.960;5.582;2023-08-06T09:44:33;9.07;;;2.47;;
12986;SDS011;58897;51.960;5.582;2023-08-06T09:47:03;9.83;;;2.30;;
12986;SDS011;58897;51.960;5.582;2023-08-06T09:52:05;11.20;;;2.80;;
12986;SDS011;58897;51.960;5.582;2023-08-06T09:54:35;12.30;;;3.17;;
12986;SDS011;58897;51.960;5.582;2023-08-06T09:57:05;24.63;;;4.43;;
12986;SDS011;58897;51.960;5.582;2023-08-06T09:59:32;11.20;;;3.67;;
12986;SDS011;58897;51.960;5.582;2023-08-06T10:01:59;7.47;;;2.93;;
12986;SDS011;58897;51.960;5.582;2023-08-06T10:04:28;9.97;;;3.90;;
12986;SDS011;58897;51.960;5.582;2023-08-06T10:07:06;17.17;;;4.43;;
12986;SDS011;58897;51.960;5.582;2023-08-06T10:09:33;7.10;;;2.47;;
12986;SDS011;58897;51.960;5.582;2023-08-06T10:12:00;9.40;;;2.93;;
12986;SDS011;58897;51.960;5.582;2023-08-06T10:14:30;11.33;;;3.37;;
12986;SDS011;58897;51.960;5.582;2023-08-06T10:16:59;17.17;;;3.77;;
12986;SDS011;58897;51.960;5.582;2023-08-06T10:19:27;7.00;;;3.13;;
12986;SDS011;58897;51.960;5.582;2023-08-06T10:22:12;6.47;;;2.53;;
12986;SDS011;58897;51.960;5.582;2023-08-06T10:24:48;4.37;;;2.53;;
12986;SDS011;58897;51.960;5.582;2023-08-06T10:27:21;17.93;;;4.03;;
12986;SDS011;58897;51.960;5.582;2023-08-06T10:29:51;5.80;;;2.60;;
12986;SDS011;58897;51.960;5.582;2023-08-06T10:32:17;25.57;;;4.87;;
12986;SDS011;58897;51.960;5.582;2023-08-06T10:37:25;8.53;;;3.30;;
12986;SDS011;58897;51.960;5.582;2023-08-06T10:40:02;18.13;;;4.50;;
12986;SDS011;58897;51.960;5.582;2023-08-06T10:42:30;6.83;;;3.40;;
12986;SDS011;58897;51.960;5.582;2023-08-06T10:45:14;8.30;;;3.43;;
12986;SDS011;58897;51.960;5.582;2023-08-06T10:47:42;4.07;;;2.40;;
12986;SDS011;58897;51.960;5.582;2023-08-06T10:50:11;22.40;;;5.13;;
12986;SDS011;58897;51.960;5.582;2023-08-06T10:52:46;16.30;;;5.17;;
12986;SDS011;58897;51.960;5.582;2023-08-06T10:55:14;24.13;;;5.00;;
12986;SDS011;58897;51.960;5.582;2023-08-06T10:57:48;10.63;;;4.13;;
12986;SDS011;58897;51.960;5.582;2023-08-06T11:00:14;9.20;;;3.47;;
12986;SDS011;58897;51.960;5.582;2023-08-06T11:02:42;14.83;;;4.73;;
12986;SDS011;58897;51.960;5.582;2023-08-06T11:05:11;9.87;;;3.00;;
12986;SDS011;58897;51.960;5.582;2023-08-06T11:07:42;7.07;;;3.03;;
12986;SDS011;58897;51.960;5.582;2023-08-06T11:10:10;11.67;;;3.67;;
12986;SDS011;58897;51.960;5.582;2023-08-06T11:12:38;12.70;;;4.30;;
12986;SDS011;58897;51.960;5.582;2023-08-06T11:15:06;11.60;;;3.37;;
12986;SDS011;58897;51.960;5.582;2023-08-06T11:17:33;6.90;;;3.20;;
12986;SDS011;58897;51.960;5.582;2023-08-06T11:20:04;4.97;;;2.80;;
12986;SDS011;58897;51.960;5.582;2023-08-06T11:22:32;10.90;;;3.40;;
12986;SDS011;58897;51.960;5.582;2023-08-06T11:24:59;5.40;;;2.80;;
12986;SDS011;58897;51.960;5.582;2023-08-06T11:27:27;11.60;;;3.60;;
12986;SDS011;58897;51.960;5.582;2023-08-06T11:29:55;10.30;;;3.30;;
12986;SDS011;58897;51.960;5.582;2023-08-06T11:32:22;9.03;;;3.40;;
12986;SDS011;58897;51.960;5.582;2023-08-06T11:34:48;5.77;;;2.70;;
12986;SDS011;58897;51.960;5.582;2023-08-06T11:37:15;13.73;;;3.47;;
12986;SDS011;58897;51.960;5.582;2023-08-06T11:39:46;4.50;;;2.20;;
12986;SDS011;58897;51.960;5.582;2023-08-06T11:42:16;15.80;;;5.40;;
12986;SDS011;58897;51.960;5.582;2023-08-06T11:44:43;9.23;;;4.17;;
12986;SDS011;58897;51.960;5.582;2023-08-06T11:47:15;16.27;;;4.23;;
12986;SDS011;58897;51.960;5.582;2023-08-06T11:49:53;4.90;;;2.53;;
12986;SDS011;58897;51.960;5.582;2023-08-06T11:52:21;6.77;;;2.53;;
12986;SDS011;58897;51.960;5.582;2023-08-06T11:55:02;4.93;;;2.07;;
12986;SDS011;58897;51.960;5.582;2023-08-06T11:57:33;7.43;;;2.63;;
12986;SDS011;58897;51.960;5.582;2023-08-06T12:00:07;14.77;;;3.17;;
12986;SDS011;58897;51.960;5.582;2023-08-06T12:02:36;6.33;;;2.57;;
12986;SDS011;58897;51.960;5.582;2023-08-06T12:05:15;9.47;;;2.83;;
12986;SDS011;58897;51.960;5.582;2023-08-06T12:07:56;4.50;;;2.07;;
12986;SDS011;58897;51.960;5.582;2023-08-06T12:10:24;12.37;;;3.47;;
12986;SDS011;58897;51.960;5.582;2023-08-06T12:12:55;4.13;;;1.83;;
12986;SDS011;58897;51.960;5.582;2023-08-06T12:15:23;6.20;;;2.67;;
12986;SDS011;58897;51.960;5.582;2023-08-06T12:17:50;10.80;;;3.33;;
12986;SDS011;58897;51.960;5.582;2023-08-06T12:20:17;24.13;;;3.63;;
12986;SDS011;58897;51.960;5.582;2023-08-06T12:22:44;6.27;;;2.67;;
12986;SDS011;58897;51.960;5.582;2023-08-06T12:25:14;16.70;;;3.10;;
12986;SDS011;58897;51.960;5.582;2023-08-06T12:27:42;7.23;;;2.27;;
12986;SDS011;58897;51.960;5.582;2023-08-06T12:30:10;26.77;;;3.77;;
12986;SDS011;58897;51.960;5.582;2023-08-06T12:32:38;7.87;;;2.43;;
12986;SDS011;58897;51.960;5.582;2023-08-06T12:35:05;13.10;;;2.37;;
12986;SDS011;58897;51.960;5.582;2023-08-06T12:37:34;9.00;;;3.00;;
12986;SDS011;58897;51.960;5.582;2023-08-06T12:40:02;8.17;;;2.53;;
12986;SDS011;58897;51.960;5.582;2023-08-06T12:42:52;9.83;;;2.93;;
12986;SDS011;58897;51.960;5.582;2023-08-06T12:45:19;7.40;;;2.20;;
12986;SDS011;58897;51.960;5.582;2023-08-06T12:47:48;6.43;;;2.10;;
12986;SDS011;58897;51.960;5.582;2023-08-06T12:50:16;14.27;;;2.60;;
12986;SDS011;58897;51.960;5.582;2023-08-06T12:52:44;7.83;;;2.47;;
12986;SDS011;58897;51.960;5.582;2023-08-06T12:55:11;9.00;;;1.90;;
12986;SDS011;58897;51.960;5.582;2023-08-06T12:57:40;5.83;;;2.17;;
12986;SDS011;58897;51.960;5.582;2023-08-06T13:00:10;11.63;;;2.57;;
12986;SDS011;58897;51.960;5.582;2023-08-06T13:02:37;13.80;;;3.83;;
12986;SDS011;58897;51.960;5.582;2023-08-06T13:05:03;9.10;;;2.40;;
12986;SDS011;58897;51.960;5.582;2023-08-06T13:07:32;7.43;;;1.70;;
12986;SDS011;58897;51.960;5.582;2023-08-06T13:09:59;3.53;;;1.40;;
12986;SDS011;58897;51.960;5.582;2023-08-06T13:12:25;10.27;;;2.97;;
12986;SDS011;58897;51.960;5.582;2023-08-06T13:14:52;3.07;;;1.30;;
12986;SDS011;58897;51.960;5.582;2023-08-06T13:17:19;11.83;;;2.77;;
12986;SDS011;58897;51.960;5.582;2023-08-06T13:19:46;6.77;;;2.20;;
12986;SDS011;58897;51.960;5.582;2023-08-06T13:22:12;17.90;;;3.73;;
12986;SDS011;58897;51.960;5.582;2023-08-06T13:24:39;8.87;;;2.53;;
12986;SDS011;58897;51.960;5.582;2023-08-06T13:27:05;25.43;;;4.40;;
12986;SDS011;58897;51.960;5.582;2023-08-06T13:29:33;5.77;;;1.93;;
12986;SDS011;58897;51.960;5.582;2023-08-06T13:31:59;9.20;;;2.00;;
12986;SDS011;58897;51.960;5.582;2023-08-06T13:34:26;7.57;;;2.17;;
12986;SDS011;58897;51.960;5.582;2023-08-06T13:36:52;5.20;;;1.60;;
12986;SDS011;58897;51.960;5.582;2023-08-06T13:39:20;8.23;;;1.87;;
12986;SDS011;58897;51.960;5.582;2023-08-06T13:41:46;7.60;;;2.10;;
12986;SDS011;58897;51.960;5.582;2023-08-06T13:44:13;11.50;;;2.83;;
12986;SDS011;58897;51.960;5.582;2023-08-06T13:46:41;6.07;;;1.93;;
12986;SDS011;58897;51.960;5.582;2023-08-06T13:49:08;8.77;;;1.83;;
12986;SDS011;58897;51.960;5.582;2023-08-06T13:51:35;6.87;;;2.10;;
12986;SDS011;58897;51.960;5.582;2023-08-06T13:54:02;9.17;;;2.43;;
12986;SDS011;58897;51.960;5.582;2023-08-06T13:56:29;6.27;;;2.00;;
12986;SDS011;58897;51.960;5.582;2023-08-06T13:58:58;7.97;;;2.43;;
12986;SDS011;58897;51.960;5.582;2023-08-06T14:01:25;6.67;;;1.93;;
12986;SDS011;58897;51.960;5.582;2023-08-06T14:04:12;7.30;;;2.00;;
12986;SDS011;58897;51.960;5.582;2023-08-06T14:06:39;7.57;;;2.27;;
12986;SDS011;58897;51.960;5.582;2023-08-06T14:09:06;8.80;;;2.07;;
12986;SDS011;58897;51.960;5.582;2023-08-06T14:11:32;9.17;;;2.70;;
12986;SDS011;58897;51.960;5.582;2023-08-06T14:14:00;6.00;;;1.70;;
12986;SDS011;58897;51.960;5.582;2023-08-06T14:16:29;8.80;;;2.70;;
12986;SDS011;58897;51.960;5.582;2023-08-06T14:18:56;20.93;;;4.70;;
12986;SDS011;58897;51.960;5.582;2023-08-06T14:21:22;5.00;;;1.83;;
12986;SDS011;58897;51.960;5.582;2023-08-06T14:23:49;14.60;;;5.40;;
12986;SDS011;58897;51.960;5.582;2023-08-06T14:26:15;14.83;;;3.10;;
12986;SDS011;58897;51.960;5.582;2023-08-06T14:28:43;9.97;;;3.23;;
12986;SDS011;58897;51.960;5.582;2023-08-06T14:31:13;12.47;;;3.30;;
12986;SDS011;58897;51.960;5.582;2023-08-06T14:33:39;7.57;;;2.47;;
12986;SDS011;58897;51.960;5.582;2023-08-06T14:36:06;21.00;;;3.07;;
12986;SDS011;58897;51.960;5.582;2023-08-06T14:38:33;19.27;;;4.23;;
12986;SDS011;58897;51.960;5.582;2023-08-06T14:41:11;7.43;;;2.20;;
12986;SDS011;58897;51.960;5.582;2023-08-06T14:43:38;6.23;;;2.63;;
12986;SDS011;58897;51.960;5.582;2023-08-06T14:46:04;14.10;;;3.47;;
12986;SDS011;58897;51.960;5.582;2023-08-06T14:48:31;8.63;;;2.43;;
12986;SDS011;58897;51.960;5.582;2023-08-06T14:50:58;7.10;;;2.73;;
12986;SDS011;58897;51.960;5.582;2023-08-06T14:53:24;8.53;;;2.73;;
12986;SDS011;58897;51.960;5.582;2023-08-06T14:55:51;7.70;;;2.40;;
12986;SDS011;58897;51.960;5.582;2023-08-06T14:58:18;5.03;;;2.10;;
12986;SDS011;58897;51.960;5.582;2023-08-06T15:00:45;12.20;;;3.70;;
12986;SDS011;58897;51.960;5.582;2023-08-06T15:03:12;26.67;;;4.00;;